sensor_id;sensor_type;location;lat;lon;timestamp;pressure;altitude;pressure_sealevel;temperature;humidity
8653;BME280;4364;52.426;9.424;2023-05-08T00:01:59;101821.44;;;9.06;79.83
8653;BME280;4364;52.426;9.424;2023-05-08T00:04:26;101822.53;;;9.05;80.49
8653;BME280;4364;52.426;9.424;2023-05-08T00:06:53;101818.75;;;8.95;80.94
8653;BME280;4364;52.426;9.424;2023-05-08T00:09:19;101819.19;;;9.03;80.31
8653;BME280;4364;52.426;9.424;2023-05-08T00:11:46;101812.28;;;8.96;80.95
8653;BME280;4364;52.426;9.424;2023-05-08T00:14:12;101816.84;;;8.95;80.99
8653;BME280;4364;52.426;9.424;2023-05-08T00:16:39;101818.84;;;9.00;80.79
8653;BME280;4364;52.426;9.424;2023-05-08T00:19:06;101821.47;;;8.95;80.82
8653;BME280;4364;52.426;9.424;2023-05-08T00:21:32;101817.81;;;8.89;81.17
8653;BME280;4364;52.426;9.424;2023-05-08T00:23:59;101818.06;;;8.87;81.38
8653;BME280;4364;52.426;9.424;2023-05-08T00:26:26;101822.78;;;8.80;81.59
8653;BME280;4364;52.426;9.424;2023-05-08T00:28:52;101811.81;;;8.75;82.32
8653;BME280;4364;52.426;9.424;2023-05-08T00:31:19;101812.41;;;8.89;81.90
8653;BME280;4364;52.426;9.424;2023-05-08T00:33:45;101817.22;;;8.87;81.87
8653;BME280;4364;52.426;9.424;2023-05-08T00:36:12;101811.47;;;8.71;82.83
8653;BME280;4364;52.426;9.424;2023-05-08T00:38:40;101810.88;;;8.81;82.34
8653;BME280;4364;52.426;9.424;2023-05-08T00:41:07;101813.94;;;8.73;82.01
8653;BME280;4364;52.426;9.424;2023-05-08T00:43:34;101810.28;;;8.79;82.47
8653;BME280;4364;52.426;9.424;2023-05-08T00:46:01;101816.06;;;8.71;82.55
8653;BME280;4364;52.426;9.424;2023-05-08T00:48:30;101818.66;;;8.66;82.99
8653;BME280;4364;52.426;9.424;2023-05-08T00:50:57;101815.97;;;8.66;83.73
8653;BME280;4364;52.426;9.424;2023-05-08T00:53:26;101814.28;;;8.65;82.77
8653;BME280;4364;52.426;9.424;2023-05-08T00:55:53;101810.31;;;8.67;83.46
8653;BME280;4364;52.426;9.424;2023-05-08T00:58:22;101808.28;;;8.63;82.95
8653;BME280;4364;52.426;9.424;2023-05-08T01:00:51;101807.59;;;8.56;83.56
8653;BME280;4364;52.426;9.424;2023-05-08T01:03:19;101813.00;;;8.67;83.29
8653;BME280;4364;52.426;9.424;2023-05-08T01:05:47;101805.00;;;8.61;83.17
8653;BME280;4364;52.426;9.424;2023-05-08T01:08:13;101803.09;;;8.61;83.48
8653;BME280;4364;52.426;9.424;2023-05-08T01:10:49;101806.75;;;8.55;83.72
8653;BME280;4364;52.426;9.424;2023-05-08T01:16:06;101801.56;;;8.53;84.07
8653;BME280;4364;52.426;9.424;2023-05-08T01:18:37;101796.41;;;8.52;83.89
8653;BME280;4364;52.426;9.424;2023-05-08T01:24:36;101797.22;;;8.52;83.79
8653;BME280;4364;52.426;9.424;2023-05-08T01:27:37;101794.50;;;8.64;82.77
8653;BME280;4364;52.426;9.424;2023-05-08T01:30:18;101796.75;;;8.44;83.57
8653;BME280;4364;52.426;9.424;2023-05-08T01:32:54;101793.91;;;8.39;84.40
8653;BME280;4364;52.426;9.424;2023-05-08T01:35:29;101798.16;;;8.46;84.32
8653;BME280;4364;52.426;9.424;2023-05-08T01:38:18;101806.41;;;8.51;84.46
8653;BME280;4364;52.426;9.424;2023-05-08T01:40:52;101804.91;;;8.44;84.49
8653;BME280;4364;52.426;9.424;2023-05-08T01:43:34;101802.63;;;8.41;84.62
8653;BME280;4364;52.426;9.424;2023-05-08T01:46:07;101803.34;;;8.48;83.92
8653;BME280;4364;52.426;9.424;2023-05-08T01:48:40;101806.97;;;8.42;84.76
8653;BME280;4364;52.426;9.424;2023-05-08T01:51:13;101805.81;;;8.49;83.62
8653;BME280;4364;52.426;9.424;2023-05-08T01:53:48;101806.50;;;8.33;83.90
8653;BME280;4364;52.426;9.424;2023-05-08T01:56:19;101800.47;;;8.31;84.29
8653;BME280;4364;52.426;9.424;2023-05-08T01:58:51;101805.66;;;8.32;84.37
8653;BME280;4364;52.426;9.424;2023-05-08T02:01:22;101800.47;;;8.31;84.40
8653;BME280;4364;52.426;9.424;2023-05-08T02:03:50;101795.66;;;8.33;84.09
8653;BME280;4364;52.426;9.424;2023-05-08T02:06:19;101798.47;;;8.26;83.81
8653;BME280;4364;52.426;9.424;2023-05-08T02:08:48;101796.84;;;8.37;83.68
8653;BME280;4364;52.426;9.424;2023-05-08T02:11:17;101795.41;;;8.23;83.48
8653;BME280;4364;52.426;9.424;2023-05-08T02:13:46;101798.09;;;8.11;84.72
8653;BME280;4364;52.426;9.424;2023-05-08T02:16:13;101785.84;;;8.08;84.67
8653;BME280;4364;52.426;9.424;2023-05-08T02:18:50;101792.91;;;8.09;84.99
8653;BME280;4364;52.426;9.424;2023-05-08T02:21:19;101786.34;;;8.17;84.23
8653;BME280;4364;52.426;9.424;2023-05-08T02:23:47;101797.75;;;8.19;83.76
8653;BME280;4364;52.426;9.424;2023-05-08T02:26:15;101799.66;;;8.19;83.23
8653;BME280;4364;52.426;9.424;2023-05-08T02:28:42;101787.97;;;8.18;84.16
8653;BME280;4364;52.426;9.424;2023-05-08T02:31:10;101797.06;;;8.12;83.42
8653;BME280;4364;52.426;9.424;2023-05-08T02:33:39;101799.97;;;7.98;84.60
8653;BME280;4364;52.426;9.424;2023-05-08T02:36:07;101796.22;;;8.11;83.95
8653;BME280;4364;52.426;9.424;2023-05-08T02:38:36;101794.31;;;8.00;84.29
8653;BME280;4364;52.426;9.424;2023-05-08T02:41:04;101794.78;;;7.97;84.18
8653;BME280;4364;52.426;9.424;2023-05-08T02:43:32;101791.69;;;7.93;84.59
8653;BME280;4364;52.426;9.424;2023-05-08T02:46:09;101792.53;;;7.94;84.20
8653;BME280;4364;52.426;9.424;2023-05-08T02:48:45;101791.22;;;7.85;85.28
8653;BME280;4364;52.426;9.424;2023-05-08T02:51:38;101779.81;;;7.94;84.47
8653;BME280;4364;52.426;9.424;2023-05-08T02:54:18;101782.06;;;7.97;84.32
8653;BME280;4364;52.426;9.424;2023-05-08T02:57:05;101782.16;;;7.79;84.46
8653;BME280;4364;52.426;9.424;2023-05-08T02:59:45;101775.50;;;7.63;85.47
8653;BME280;4364;52.426;9.424;2023-05-08T03:02:25;101776.59;;;7.74;85.19
8653;BME280;4364;52.426;9.424;2023-05-08T03:04:57;101785.50;;;7.63;85.73
8653;BME280;4364;52.426;9.424;2023-05-08T03:07:26;101787.31;;;7.69;85.38
8653;BME280;4364;52.426;9.424;2023-05-08T03:10:01;101777.09;;;7.83;84.92
8653;BME280;4364;52.426;9.424;2023-05-08T03:12:32;101784.03;;;7.78;84.97
8653;BME280;4364;52.426;9.424;2023-05-08T03:15:02;101785.28;;;7.64;85.75
8653;BME280;4364;52.426;9.424;2023-05-08T03:17:35;101782.34;;;7.66;84.94
8653;BME280;4364;52.426;9.424;2023-05-08T03:20:04;101784.94;;;7.60;85.35
8653;BME280;4364;52.426;9.424;2023-05-08T03:22:34;101786.94;;;7.65;85.87
8653;BME280;4364;52.426;9.424;2023-05-08T03:25:04;101780.69;;;7.65;84.80
8653;BME280;4364;52.426;9.424;2023-05-08T03:27:34;101781.13;;;7.61;85.36
8653;BME280;4364;52.426;9.424;2023-05-08T03:30:03;101780.13;;;7.74;84.65
8653;BME280;4364;52.426;9.424;2023-05-08T03:32:33;101771.66;;;7.71;84.47
8653;BME280;4364;52.426;9.424;2023-05-08T03:35:01;101772.88;;;7.56;85.07
8653;BME280;4364;52.426;9.424;2023-05-08T03:37:29;101777.84;;;7.59;84.65
8653;BME280;4364;52.426;9.424;2023-05-08T03:39:56;101765.09;;;7.48;85.09
8653;BME280;4364;52.426;9.424;2023-05-08T03:42:23;101777.94;;;7.53;85.60
8653;BME280;4364;52.426;9.424;2023-05-08T03:44:51;101776.22;;;7.58;84.96
8653;BME280;4364;52.426;9.424;2023-05-08T03:47:21;101778.31;;;7.56;84.39
8653;BME280;4364;52.426;9.424;2023-05-08T03:49:51;101782.53;;;7.52;84.39
8653;BME280;4364;52.426;9.424;2023-05-08T03:52:18;101781.56;;;7.47;84.46
8653;BME280;4364;52.426;9.424;2023-05-08T03:54:45;101772.84;;;7.45;84.85
8653;BME280;4364;52.426;9.424;2023-05-08T03:57:12;101778.84;;;7.47;85.50
8653;BME280;4364;52.426;9.424;2023-05-08T04:00:09;101770.19;;;7.56;84.03
8653;BME280;4364;52.426;9.424;2023-05-08T04:08:08;101769.22;;;7.51;84.56
8653;BME280;4364;52.426;9.424;2023-05-08T04:10:58;101777.94;;;7.53;84.70
8653;BME280;4364;52.426;9.424;2023-05-08T04:13:31;101790.28;;;7.49;84.48
8653;BME280;4364;52.426;9.424;2023-05-08T04:16:12;101788.19;;;7.51;84.68
8653;BME280;4364;52.426;9.424;2023-05-08T04:18:45;101792.69;;;7.57;84.42
8653;BME280;4364;52.426;9.424;2023-05-08T04:21:18;101795.38;;;7.57;84.23
8653;BME280;4364;52.426;9.424;2023-05-08T04:23:49;101796.06;;;7.52;83.50
8653;BME280;4364;52.426;9.424;2023-05-08T04:26:17;101787.59;;;7.49;84.68
8653;BME280;4364;52.426;9.424;2023-05-08T04:28:47;101783.59;;;7.51;84.11
8653;BME280;4364;52.426;9.424;2023-05-08T04:31:18;101790.28;;;7.49;83.93
8653;BME280;4364;52.426;9.424;2023-05-08T04:33:45;101778.06;;;7.58;84.07
8653;BME280;4364;52.426;9.424;2023-05-08T04:36:13;101786.50;;;7.50;84.28
8653;BME280;4364;52.426;9.424;2023-05-08T04:38:42;101777.72;;;7.54;84.22
8653;BME280;4364;52.426;9.424;2023-05-08T04:41:09;101785.94;;;7.48;84.61
8653;BME280;4364;52.426;9.424;2023-05-08T04:43:37;101775.94;;;7.60;84.62
8653;BME280;4364;52.426;9.424;2023-05-08T04:46:05;101778.19;;;7.63;83.68
8653;BME280;4364;52.426;9.424;2023-05-08T04:48:32;101772.44;;;7.59;83.75
8653;BME280;4364;52.426;9.424;2023-05-08T04:50:59;101773.72;;;7.57;83.62
8653;BME280;4364;52.426;9.424;2023-05-08T04:53:26;101771.34;;;7.49;84.62
8653;BME280;4364;52.426;9.424;2023-05-08T04:55:53;101778.41;;;7.50;84.26
8653;BME280;4364;52.426;9.424;2023-05-08T04:58:19;101790.44;;;7.54;84.31
8653;BME280;4364;52.426;9.424;2023-05-08T05:00:47;101780.19;;;7.56;83.96
8653;BME280;4364;52.426;9.424;2023-05-08T05:03:14;101794.03;;;7.48;85.30
8653;BME280;4364;52.426;9.424;2023-05-08T05:05:41;101793.53;;;7.69;84.34
8653;BME280;4364;52.426;9.424;2023-05-08T05:08:08;101796.47;;;7.68;84.77
8653;BME280;4364;52.426;9.424;2023-05-08T05:10:36;101800.72;;;7.64;84.63
8653;BME280;4364;52.426;9.424;2023-05-08T05:13:03;101794.72;;;7.73;83.84
8653;BME280;4364;52.426;9.424;2023-05-08T05:15:30;101801.19;;;7.72;84.25
8653;BME280;4364;52.426;9.424;2023-05-08T05:17:57;101787.34;;;7.81;83.61
8653;BME280;4364;52.426;9.424;2023-05-08T05:20:25;101800.75;;;7.75;83.57
8653;BME280;4364;52.426;9.424;2023-05-08T05:22:52;101788.03;;;7.76;83.37
8653;BME280;4364;52.426;9.424;2023-05-08T05:25:18;101789.59;;;7.84;82.97
8653;BME280;4364;52.426;9.424;2023-05-08T05:27:45;101791.53;;;7.76;83.80
8653;BME280;4364;52.426;9.424;2023-05-08T05:30:12;101794.13;;;7.71;83.86
8653;BME280;4364;52.426;9.424;2023-05-08T05:32:39;101803.34;;;7.82;83.75
8653;BME280;4364;52.426;9.424;2023-05-08T05:35:06;101801.47;;;7.83;83.18
8653;BME280;4364;52.426;9.424;2023-05-08T05:37:33;101799.78;;;7.82;84.15
8653;BME280;4364;52.426;9.424;2023-05-08T05:40:00;101805.97;;;7.89;83.51
8653;BME280;4364;52.426;9.424;2023-05-08T05:42:28;101811.72;;;7.92;83.78
8653;BME280;4364;52.426;9.424;2023-05-08T05:44:55;101812.69;;;7.98;84.22
8653;BME280;4364;52.426;9.424;2023-05-08T05:47:25;101811.88;;;8.09;83.74
8653;BME280;4364;52.426;9.424;2023-05-08T05:49:52;101825.81;;;8.25;83.04
8653;BME280;4364;52.426;9.424;2023-05-08T05:52:18;101829.50;;;8.42;81.69
8653;BME280;4364;52.426;9.424;2023-05-08T05:54:44;101829.88;;;8.46;81.38
8653;BME280;4364;52.426;9.424;2023-05-08T05:57:12;101821.16;;;8.44;81.50
8653;BME280;4364;52.426;9.424;2023-05-08T05:59:39;101824.34;;;8.52;81.07
8653;BME280;4364;52.426;9.424;2023-05-08T06:02:06;101820.91;;;8.57;80.91
8653;BME280;4364;52.426;9.424;2023-05-08T06:04:36;101821.28;;;8.61;80.34
8653;BME280;4364;52.426;9.424;2023-05-08T06:07:05;101822.78;;;8.80;79.36
8653;BME280;4364;52.426;9.424;2023-05-08T06:09:31;101825.59;;;8.74;79.43
8653;BME280;4364;52.426;9.424;2023-05-08T06:11:58;101828.81;;;8.82;79.80
8653;BME280;4364;52.426;9.424;2023-05-08T06:14:25;101833.03;;;8.90;78.83
8653;BME280;4364;52.426;9.424;2023-05-08T06:16:51;101838.44;;;8.90;78.97
8653;BME280;4364;52.426;9.424;2023-05-08T06:19:18;101831.38;;;9.01;78.46
8653;BME280;4364;52.426;9.424;2023-05-08T06:21:44;101835.13;;;9.00;78.52
8653;BME280;4364;52.426;9.424;2023-05-08T06:24:11;101830.06;;;9.03;78.35
8653;BME280;4364;52.426;9.424;2023-05-08T06:26:37;101827.81;;;9.12;78.51
8653;BME280;4364;52.426;9.424;2023-05-08T06:29:04;101834.88;;;9.13;78.48
8653;BME280;4364;52.426;9.424;2023-05-08T06:31:30;101826.22;;;9.28;77.98
8653;BME280;4364;52.426;9.424;2023-05-08T06:33:57;101833.66;;;9.33;77.56
8653;BME280;4364;52.426;9.424;2023-05-08T06:36:23;101837.31;;;9.26;78.49
8653;BME280;4364;52.426;9.424;2023-05-08T06:38:50;101833.22;;;9.53;76.83
8653;BME280;4364;52.426;9.424;2023-05-08T06:41:16;101832.06;;;9.49;77.15
8653;BME280;4364;52.426;9.424;2023-05-08T06:43:43;101825.13;;;9.70;76.30
8653;BME280;4364;52.426;9.424;2023-05-08T06:46:09;101833.50;;;9.68;76.74
8653;BME280;4364;52.426;9.424;2023-05-08T06:48:36;101833.88;;;9.89;76.49
8653;BME280;4364;52.426;9.424;2023-05-08T06:51:02;101828.03;;;9.97;75.93
8653;BME280;4364;52.426;9.424;2023-05-08T06:53:29;101829.38;;;9.94;75.68
8653;BME280;4364;52.426;9.424;2023-05-08T06:55:56;101823.63;;;10.08;75.07
8653;BME280;4364;52.426;9.424;2023-05-08T06:58:25;101828.38;;;10.00;75.28
8653;BME280;4364;52.426;9.424;2023-05-08T07:00:52;101828.81;;;10.09;75.76
8653;BME280;4364;52.426;9.424;2023-05-08T07:03:18;101827.16;;;10.25;74.44
8653;BME280;4364;52.426;9.424;2023-05-08T07:05:45;101827.72;;;10.39;74.28
8653;BME280;4364;52.426;9.424;2023-05-08T07:08:11;101836.59;;;10.51;73.58
8653;BME280;4364;52.426;9.424;2023-05-08T07:10:38;101825.84;;;10.62;73.75
8653;BME280;4364;52.426;9.424;2023-05-08T07:13:04;101834.66;;;10.69;73.57
8653;BME280;4364;52.426;9.424;2023-05-08T07:15:31;101839.00;;;10.87;72.79
8653;BME280;4364;52.426;9.424;2023-05-08T07:17:58;101838.31;;;10.97;71.53
8653;BME280;4364;52.426;9.424;2023-05-08T07:20:25;101836.22;;;11.04;71.56
8653;BME280;4364;52.426;9.424;2023-05-08T07:22:51;101836.03;;;11.10;71.68
8653;BME280;4364;52.426;9.424;2023-05-08T07:25:18;101841.22;;;11.34;71.05
8653;BME280;4364;52.426;9.424;2023-05-08T07:27:45;101827.56;;;11.51;69.15
8653;BME280;4364;52.426;9.424;2023-05-08T07:30:11;101827.75;;;11.72;68.79
8653;BME280;4364;52.426;9.424;2023-05-08T07:32:38;101834.16;;;11.87;68.85
8653;BME280;4364;52.426;9.424;2023-05-08T07:35:05;101838.00;;;12.14;67.38
8653;BME280;4364;52.426;9.424;2023-05-08T07:37:37;101840.19;;;12.17;66.03
8653;BME280;4364;52.426;9.424;2023-05-08T07:40:04;101839.66;;;12.15;66.46
8653;BME280;4364;52.426;9.424;2023-05-08T07:42:37;101830.91;;;12.50;65.67
8653;BME280;4364;52.426;9.424;2023-05-08T07:45:04;101834.31;;;12.73;64.63
8653;BME280;4364;52.426;9.424;2023-05-08T07:47:30;101828.19;;;12.98;63.80
8653;BME280;4364;52.426;9.424;2023-05-08T07:49:57;101830.41;;;13.06;63.51
8653;BME280;4364;52.426;9.424;2023-05-08T07:52:24;101829.31;;;13.02;63.12
8653;BME280;4364;52.426;9.424;2023-05-08T07:54:50;101828.53;;;13.12;62.89
8653;BME280;4364;52.426;9.424;2023-05-08T07:57:17;101830.13;;;13.03;63.19
8653;BME280;4364;52.426;9.424;2023-05-08T07:59:43;101835.31;;;13.04;63.46
8653;BME280;4364;52.426;9.424;2023-05-08T08:02:09;101828.84;;;13.26;62.74
8653;BME280;4364;52.426;9.424;2023-05-08T08:04:36;101838.78;;;13.42;61.99
8653;BME280;4364;52.426;9.424;2023-05-08T08:07:03;101836.22;;;13.20;62.29
8653;BME280;4364;52.426;9.424;2023-05-08T08:09:30;101835.50;;;13.45;62.05
8653;BME280;4364;52.426;9.424;2023-05-08T08:11:57;101832.41;;;13.26;62.33
8653;BME280;4364;52.426;9.424;2023-05-08T08:14:25;101827.50;;;13.23;62.12
8653;BME280;4364;52.426;9.424;2023-05-08T08:16:52;101828.94;;;13.46;62.45
8653;BME280;4364;52.426;9.424;2023-05-08T08:19:19;101826.28;;;13.67;61.47
8653;BME280;4364;52.426;9.424;2023-05-08T08:21:45;101829.00;;;13.57;61.27
8653;BME280;4364;52.426;9.424;2023-05-08T08:24:12;101832.31;;;13.79;61.66
8653;BME280;4364;52.426;9.424;2023-05-08T08:26:38;101834.75;;;13.65;61.02
8653;BME280;4364;52.426;9.424;2023-05-08T08:29:05;101833.38;;;13.73;61.95
8653;BME280;4364;52.426;9.424;2023-05-08T08:31:32;101834.75;;;13.76;61.49
8653;BME280;4364;52.426;9.424;2023-05-08T08:33:58;101834.78;;;13.81;61.23
8653;BME280;4364;52.426;9.424;2023-05-08T08:36:25;101830.97;;;14.02;60.64
8653;BME280;4364;52.426;9.424;2023-05-08T08:38:52;101826.03;;;14.15;59.86
8653;BME280;4364;52.426;9.424;2023-05-08T08:41:18;101816.19;;;14.39;60.30
8653;BME280;4364;52.426;9.424;2023-05-08T08:43:45;101807.38;;;14.58;59.26
8653;BME280;4364;52.426;9.424;2023-05-08T08:46:13;101809.06;;;14.59;59.12
8653;BME280;4364;52.426;9.424;2023-05-08T08:48:46;101807.09;;;14.85;58.63
8653;BME280;4364;52.426;9.424;2023-05-08T08:51:31;101813.66;;;14.84;58.95
8653;BME280;4364;52.426;9.424;2023-05-08T08:54:10;101810.13;;;14.84;58.22
8653;BME280;4364;52.426;9.424;2023-05-08T08:56:39;101808.94;;;15.00;58.32
8653;BME280;4364;52.426;9.424;2023-05-08T08:59:10;101812.78;;;15.04;57.23
8653;BME280;4364;52.426;9.424;2023-05-08T09:01:38;101810.38;;;14.82;57.87
8653;BME280;4364;52.426;9.424;2023-05-08T09:04:06;101811.16;;;14.98;58.78
8653;BME280;4364;52.426;9.424;2023-05-08T09:06:35;101819.56;;;15.17;57.96
8653;BME280;4364;52.426;9.424;2023-05-08T09:09:02;101816.44;;;15.39;57.43
8653;BME280;4364;52.426;9.424;2023-05-08T09:11:30;101811.41;;;15.56;57.34
8653;BME280;4364;52.426;9.424;2023-05-08T09:13:57;101805.53;;;15.84;56.19
8653;BME280;4364;52.426;9.424;2023-05-08T09:16:24;101805.53;;;15.73;56.18
8653;BME280;4364;52.426;9.424;2023-05-08T09:18:50;101800.31;;;15.82;56.26
8653;BME280;4364;52.426;9.424;2023-05-08T09:21:17;101801.31;;;15.91;56.28
8653;BME280;4364;52.426;9.424;2023-05-08T09:24:01;101812.88;;;15.88;56.60
8653;BME280;4364;52.426;9.424;2023-05-08T09:26:32;101810.72;;;15.80;56.01
8653;BME280;4364;52.426;9.424;2023-05-08T09:29:13;101805.09;;;16.01;56.48
8653;BME280;4364;52.426;9.424;2023-05-08T09:31:42;101807.84;;;16.30;55.55
8653;BME280;4364;52.426;9.424;2023-05-08T09:34:11;101811.47;;;16.25;55.63
8653;BME280;4364;52.426;9.424;2023-05-08T09:36:46;101800.31;;;16.46;55.21
8653;BME280;4364;52.426;9.424;2023-05-08T09:39:23;101801.97;;;16.71;54.41
8653;BME280;4364;52.426;9.424;2023-05-08T09:42:01;101810.09;;;16.57;54.25
8653;BME280;4364;52.426;9.424;2023-05-08T09:44:42;101799.63;;;16.59;54.55
8653;BME280;4364;52.426;9.424;2023-05-08T09:47:11;101799.38;;;16.80;53.99
8653;BME280;4364;52.426;9.424;2023-05-08T09:49:38;101808.97;;;16.82;53.14
8653;BME280;4364;52.426;9.424;2023-05-08T09:52:06;101798.88;;;16.78;53.81
8653;BME280;4364;52.426;9.424;2023-05-08T09:54:33;101808.31;;;16.96;52.92
8653;BME280;4364;52.426;9.424;2023-05-08T09:57:10;101800.75;;;16.82;52.98
8653;BME280;4364;52.426;9.424;2023-05-08T09:59:37;101802.72;;;16.77;53.14
8653;BME280;4364;52.426;9.424;2023-05-08T10:02:10;101800.81;;;17.01;52.98
8653;BME280;4364;52.426;9.424;2023-05-08T10:04:37;101791.34;;;17.13;52.86
8653;BME280;4364;52.426;9.424;2023-05-08T10:07:04;101798.44;;;17.14;53.21
8653;BME280;4364;52.426;9.424;2023-05-08T10:09:31;101787.94;;;17.21;52.80
8653;BME280;4364;52.426;9.424;2023-05-08T10:12:15;101792.34;;;17.41;51.96
8653;BME280;4364;52.426;9.424;2023-05-08T10:14:41;101789.19;;;17.29;52.19
8653;BME280;4364;52.426;9.424;2023-05-08T10:17:12;101788.00;;;17.35;51.64
8653;BME280;4364;52.426;9.424;2023-05-08T10:19:43;101779.69;;;17.40;51.34
8653;BME280;4364;52.426;9.424;2023-05-08T10:22:12;101782.75;;;17.57;51.65
8653;BME280;4364;52.426;9.424;2023-05-08T10:24:43;101788.53;;;17.56;51.13
8653;BME280;4364;52.426;9.424;2023-05-08T10:27:19;101785.03;;;17.69;51.32
8653;BME280;4364;52.426;9.424;2023-05-08T10:29:53;101780.41;;;17.84;50.78
8653;BME280;4364;52.426;9.424;2023-05-08T10:32:22;101780.63;;;18.06;51.33
8653;BME280;4364;52.426;9.424;2023-05-08T10:34:51;101781.84;;;18.14;50.12
8653;BME280;4364;52.426;9.424;2023-05-08T10:37:19;101784.97;;;18.40;49.97
8653;BME280;4364;52.426;9.424;2023-05-08T10:39:46;101779.47;;;18.54;49.26
8653;BME280;4364;52.426;9.424;2023-05-08T10:42:13;101772.53;;;18.43;49.76
8653;BME280;4364;52.426;9.424;2023-05-08T10:44:40;101774.59;;;18.65;49.61
8653;BME280;4364;52.426;9.424;2023-05-08T10:47:21;101773.69;;;18.69;49.38
8653;BME280;4364;52.426;9.424;2023-05-08T10:52:41;101774.88;;;18.77;48.56
8653;BME280;4364;52.426;9.424;2023-05-08T10:55:22;101776.72;;;18.82;48.42
8653;BME280;4364;52.426;9.424;2023-05-08T11:03:23;101764.03;;;19.36;47.69
8653;BME280;4364;52.426;9.424;2023-05-08T11:05:59;101767.13;;;19.07;48.22
8653;BME280;4364;52.426;9.424;2023-05-08T11:08:27;101765.09;;;19.49;46.48
8653;BME280;4364;52.426;9.424;2023-05-08T11:13:28;101760.97;;;19.24;47.26
8653;BME280;4364;52.426;9.424;2023-05-08T11:15:56;101755.66;;;19.28;47.04
8653;BME280;4364;52.426;9.424;2023-05-08T11:18:22;101753.50;;;19.38;47.08
8653;BME280;4364;52.426;9.424;2023-05-08T11:21:13;101763.09;;;19.63;45.60
8653;BME280;4364;52.426;9.424;2023-05-08T11:23:40;101756.78;;;19.63;45.67
8653;BME280;4364;52.426;9.424;2023-05-08T11:28:38;101755.28;;;19.79;45.07
8653;BME280;4364;52.426;9.424;2023-05-08T11:31:06;101756.91;;;19.58;45.23
8653;BME280;4364;52.426;9.424;2023-05-08T11:33:35;101752.81;;;19.55;46.44
8653;BME280;4364;52.426;9.424;2023-05-08T11:36:17;101754.75;;;19.91;45.07
8653;BME280;4364;52.426;9.424;2023-05-08T11:39:23;101748.19;;;19.87;43.47
8653;BME280;4364;52.426;9.424;2023-05-08T11:41:50;101750.50;;;19.71;44.47
8653;BME280;4364;52.426;9.424;2023-05-08T11:44:19;101751.09;;;20.05;44.63
8653;BME280;4364;52.426;9.424;2023-05-08T11:46:53;101757.94;;;20.16;43.97
8653;BME280;4364;52.426;9.424;2023-05-08T11:49:22;101756.94;;;19.80;44.70
8653;BME280;4364;52.426;9.424;2023-05-08T11:51:57;101758.22;;;20.06;45.29
8653;BME280;4364;52.426;9.424;2023-05-08T11:54:24;101758.91;;;20.11;44.46
8653;BME280;4364;52.426;9.424;2023-05-08T11:56:52;101757.50;;;20.23;43.83
8653;BME280;4364;52.426;9.424;2023-05-08T11:59:22;101765.00;;;20.31;44.05
8653;BME280;4364;52.426;9.424;2023-05-08T12:01:49;101764.66;;;20.24;44.17
8653;BME280;4364;52.426;9.424;2023-05-08T12:04:41;101766.22;;;20.16;44.22
8653;BME280;4364;52.426;9.424;2023-05-08T12:07:08;101760.25;;;20.23;43.76
8653;BME280;4364;52.426;9.424;2023-05-08T12:09:34;101754.16;;;19.80;44.28
8653;BME280;4364;52.426;9.424;2023-05-08T12:12:03;101758.88;;;19.80;44.76
8653;BME280;4364;52.426;9.424;2023-05-08T12:14:30;101755.28;;;20.02;45.14
8653;BME280;4364;52.426;9.424;2023-05-08T12:16:56;101756.47;;;19.87;45.40
8653;BME280;4364;52.426;9.424;2023-05-08T12:19:23;101762.88;;;19.96;45.47
8653;BME280;4364;52.426;9.424;2023-05-08T12:21:49;101753.00;;;20.04;44.68
8653;BME280;4364;52.426;9.424;2023-05-08T12:24:16;101759.72;;;20.12;44.80
8653;BME280;4364;52.426;9.424;2023-05-08T12:26:48;101761.44;;;20.30;44.66
8653;BME280;4364;52.426;9.424;2023-05-08T12:29:18;101764.03;;;20.27;44.10
8653;BME280;4364;52.426;9.424;2023-05-08T12:31:45;101765.78;;;20.23;44.36
8653;BME280;4364;52.426;9.424;2023-05-08T12:34:12;101759.59;;;20.17;45.16
8653;BME280;4364;52.426;9.424;2023-05-08T12:36:39;101764.97;;;20.22;44.86
8653;BME280;4364;52.426;9.424;2023-05-08T12:39:15;101750.19;;;20.58;43.84
8653;BME280;4364;52.426;9.424;2023-05-08T12:41:49;101759.16;;;20.32;44.44
8653;BME280;4364;52.426;9.424;2023-05-08T12:44:24;101763.97;;;20.49;43.82
8653;BME280;4364;52.426;9.424;2023-05-08T12:46:52;101754.25;;;20.61;42.91
8653;BME280;4364;52.426;9.424;2023-05-08T12:51:50;101751.13;;;20.85;42.42
8653;BME280;4364;52.426;9.424;2023-05-08T12:54:17;101758.75;;;20.48;43.32
8653;BME280;4364;52.426;9.424;2023-05-08T12:56:44;101745.31;;;20.55;43.27
8653;BME280;4364;52.426;9.424;2023-05-08T12:59:10;101739.38;;;20.79;43.05
8653;BME280;4364;52.426;9.424;2023-05-08T13:01:37;101742.47;;;20.78;43.09
8653;BME280;4364;52.426;9.424;2023-05-08T13:04:06;101742.28;;;20.65;43.19
8653;BME280;4364;52.426;9.424;2023-05-08T13:06:33;101729.19;;;20.88;42.57
8653;BME280;4364;52.426;9.424;2023-05-08T13:09:00;101728.63;;;20.69;43.14
8653;BME280;4364;52.426;9.424;2023-05-08T13:11:28;101734.34;;;20.81;43.52
8653;BME280;4364;52.426;9.424;2023-05-08T13:13:56;101730.13;;;20.84;43.13
8653;BME280;4364;52.426;9.424;2023-05-08T13:16:22;101728.97;;;20.76;42.43
8653;BME280;4364;52.426;9.424;2023-05-08T13:18:49;101728.88;;;21.07;41.93
8653;BME280;4364;52.426;9.424;2023-05-08T13:21:15;101727.69;;;20.91;42.30
8653;BME280;4364;52.426;9.424;2023-05-08T13:23:42;101728.84;;;20.90;42.64
8653;BME280;4364;52.426;9.424;2023-05-08T13:26:08;101727.06;;;20.94;42.15
8653;BME280;4364;52.426;9.424;2023-05-08T13:28:35;101713.72;;;20.96;42.51
8653;BME280;4364;52.426;9.424;2023-05-08T13:31:01;101718.28;;;20.83;41.78
8653;BME280;4364;52.426;9.424;2023-05-08T13:33:28;101719.88;;;20.76;41.96
8653;BME280;4364;52.426;9.424;2023-05-08T13:35:54;101699.72;;;20.84;42.99
8653;BME280;4364;52.426;9.424;2023-05-08T13:38:21;101696.16;;;21.09;42.24
8653;BME280;4364;52.426;9.424;2023-05-08T13:40:47;101697.00;;;21.10;41.78
8653;BME280;4364;52.426;9.424;2023-05-08T13:43:14;101690.16;;;20.90;42.43
8653;BME280;4364;52.426;9.424;2023-05-08T13:45:40;101695.84;;;21.11;41.61
8653;BME280;4364;52.426;9.424;2023-05-08T13:48:07;101686.09;;;21.05;41.82
8653;BME280;4364;52.426;9.424;2023-05-08T13:50:34;101697.81;;;21.02;42.00
8653;BME280;4364;52.426;9.424;2023-05-08T13:53:00;101686.88;;;21.32;41.70
8653;BME280;4364;52.426;9.424;2023-05-08T13:55:27;101680.41;;;21.54;41.04
8653;BME280;4364;52.426;9.424;2023-05-08T13:57:56;101682.66;;;21.52;41.04